Gretna, United Kingdom
Current Conditions -  °F | °C
As of 8:50 AM on Wednesday 22 Oct 2014 (Local Time) from EGOM Reporting Station
Drizzle Drizzle  
Wind Chill: 37°   Ceiling: 6000
Heat Index: 45°   Visibility: 6mi
Dew Point: 43°   Wind: 16mph
Humidity: 93%   Direction: 280°W
Pressure: 30.12"   Gusts: NA
Location:  54.99°N, 3.07°W
Report Text: EGOM 220750Z 28014KT 9999 -DZ SCT023 OVC060 07/06 Q1020 WHT
Loading
Personal Weather Stations






























Interactive Weather Map
Tropical Storm Tracking
New forecast layout! Learn more

10-Day Weather Forecast

Advertisements
Track Severe Weather on mobile